Time;durP1;ratioP1;P1;durP2;ratioP2;P2;SDS_P1;SDS_P2;PMS_P1;PMS_P2;Temp;Humidity;BMP_temperature;BMP_pressure;BME280_temperature;BME280_humidity;BME280_pressure;Samples;Min_cycle;Max_cycle;Signal;HPM_P1;HPM_P2
2022/06/08 00:00:13;;;;;;;4.40;3.65;;;;;;;18.31;63.17;94529.72;5076438;28;20556;-71
2022/06/08 00:02:40;;;;;;;4.65;4.15;;;;;;;18.29;63.24;94518.94;5076623;28;20232;-70
2022/06/08 00:05:09;;;;;;;5.95;4.07;;;;;;;18.26;63.60;94517.00;5076492;28;20204;-70
2022/06/08 00:07:36;;;;;;;4.13;3.83;;;;;;;18.22;63.71;94519.03;5076269;28;20507;-70
2022/06/08 00:10:03;;;;;;;4.50;3.70;;;;;;;18.20;64.18;94513.09;5076894;28;20205;-71
2022/06/08 00:12:30;;;;;;;5.03;4.53;;;;;;;18.14;63.50;94508.38;5077032;28;20193;-71
2022/06/08 00:14:57;;;;;;;4.28;3.95;;;;;;;18.08;63.69;94505.22;5076662;28;20192;-72
2022/06/08 00:17:24;;;;;;;5.13;4.60;;;;;;;18.07;62.91;94500.84;5076449;28;20197;-72
2022/06/08 00:19:51;;;;;;;4.82;4.38;;;;;;;18.08;62.92;94505.22;5076579;28;20209;-72
2022/06/08 00:22:19;;;;;;;4.68;4.32;;;;;;;18.10;62.72;94508.41;5077210;28;20286;-72
2022/06/08 00:24:46;;;;;;;4.30;4.00;;;;;;;18.04;63.31;94504.47;5076800;28;20241;-72
2022/06/08 00:27:13;;;;;;;4.85;4.45;;;;;;;18.03;63.12;94514.84;5077235;28;20185;-72
2022/06/08 00:29:40;;;;;;;6.43;4.50;;;;;;;17.99;63.15;94510.50;5076866;28;20185;-71
2022/06/08 00:32:07;;;;;;;4.57;4.13;;;;;;;17.94;63.45;94505.41;5077148;28;20193;-70
2022/06/08 00:34:34;;;;;;;4.95;4.50;;;;;;;17.89;63.57;94509.41;5077147;28;20185;-70
2022/06/08 00:37:01;;;;;;;4.60;4.20;;;;;;;17.91;63.48;94509.00;5076291;28;20674;-70
2022/06/08 00:39:29;;;;;;;4.57;4.18;;;;;;;17.92;63.74;94507.78;5076598;28;20208;-71
2022/06/08 00:41:59;;;;;;;4.38;3.97;;;;;;;17.91;63.84;94507.00;5076586;28;20279;-70
2022/06/08 00:44:27;;;;;;;4.53;4.13;;;;;;;17.87;64.20;94506.25;5075803;28;20714;-70
2022/06/08 00:46:54;;;;;;;4.28;3.97;;;;;;;17.83;63.92;94504.69;5076801;28;20221;-70
2022/06/08 00:49:24;;;;;;;4.25;3.95;;;;;;;17.81;63.58;94502.31;5075753;28;20193;-70
2022/06/08 00:51:52;;;;;;;5.28;4.30;;;;;;;17.81;63.09;94499.53;5076927;28;20189;-70
2022/06/08 00:54:24;;;;;;;5.07;4.70;;;;;;;17.78;63.23;94503.94;5075912;28;20201;-70
2022/06/08 00:56:56;;;;;;;4.70;4.38;;;;;;;17.73;63.96;94504.34;5076656;28;20192;-70
2022/06/08 00:59:22;;;;;;;4.90;4.40;;;;;;;17.70;64.30;94510.75;5076495;28;20250;-71
2022/06/08 01:01:49;;;;;;;4.90;4.50;;;;;;;17.71;64.12;94505.97;5075656;28;20213;-71
2022/06/08 01:04:19;;;;;;;6.88;4.20;;;;;;;17.64;64.41;94504.03;5076229;28;20181;-71
2022/06/08 01:06:50;;;;;;;5.18;4.70;;;;;;;17.61;64.78;94501.28;5074495;28;20205;-72
2022/06/08 01:09:21;;;;;;;4.70;4.30;;;;;;;17.60;64.96;94502.47;5075172;28;20209;-72
2022/06/08 01:11:48;;;;;;;4.75;4.35;;;;;;;17.56;65.13;94503.31;5075424;28;20269;-71
2022/06/08 01:14:19;;;;;;;5.05;4.32;;;;;;;17.49;65.01;94497.78;5075833;28;20543;-71
2022/06/08 01:16:49;;;;;;;4.60;4.20;;;;;;;17.48;65.27;94501.00;5075914;28;20189;-71
2022/06/08 01:19:16;;;;;;;4.60;4.20;;;;;;;17.45;65.70;94490.66;5076120;28;20208;-72
2022/06/08 01:21:53;;;;;;;4.63;4.15;;;;;;;17.41;65.44;94490.69;5074820;28;20621;-73
2022/06/08 01:24:20;;;;;;;7.13;4.43;;;;;;;17.37;65.50;94486.34;5075861;28;20256;-72
2022/06/08 01:26:55;;;;;;;6.18;4.50;;;;;;;17.28;65.30;94482.06;5075804;28;20189;-72
2022/06/08 01:29:24;;;;;;;4.85;4.30;;;;;;;17.22;65.39;94485.69;5075886;28;20188;-72
2022/06/08 01:32:04;;;;;;;4.93;4.43;;;;;;;17.17;65.53;94486.09;5076179;28;20181;-72
2022/06/08 01:34:39;;;;;;;5.05;4.38;;;;;;;17.16;65.63;94499.25;5074960;28;20250;-71
2022/06/08 01:37:16;;;;;;;4.30;4.00;;;;;;;17.16;65.61;94493.66;5074912;28;20601;-71
2022/06/08 01:39:54;;;;;;;4.78;4.38;;;;;;;17.15;65.83;94494.09;5075817;28;20193;-72
2022/06/08 01:42:39;;;;;;;5.35;4.70;;;;;;;17.16;65.98;94490.88;5075983;28;20209;-72
2022/06/08 01:45:30;;;;;;;4.35;3.95;;;;;;;17.16;65.72;94499.25;5074790;28;20205;-72
2022/06/08 01:48:04;;;;;;;4.90;4.50;;;;;;;17.14;65.70;94493.31;5074718;28;20200;-71
2022/06/08 01:50:37;;;;;;;4.78;4.28;;;;;;;17.11;66.18;94488.53;5074718;28;20211;-71
2022/06/08 01:53:10;;;;;;;5.82;4.20;;;;;;;17.04;66.26;94492.16;5074672;28;20185;-71
2022/06/08 01:55:47;;;;;;;6.47;4.40;;;;;;;17.03;66.46;94490.59;5058200;28;20211;-72
2022/06/08 01:58:19;;;;;;;7.18;4.50;;;;;;;17.00;66.37;94496.19;5075221;28;20601;-72
2022/06/08 02:00:49;;;;;;;4.80;4.40;;;;;;;16.94;66.22;94495.03;5074841;28;20543;-72
2022/06/08 02:03:22;;;;;;;5.25;4.75;;;;;;;16.90;66.50;94500.63;5074440;28;20223;-72
2022/06/08 02:05:56;;;;;;;6.75;5.03;;;;;;;16.88;66.49;94488.28;5074713;28;20503;-73
2022/06/08 02:08:32;;;;;;;5.32;4.82;;;;;;;16.80;66.42;94479.97;5075389;28;20250;-72
2022/06/08 02:11:04;;;;;;;5.32;4.75;;;;;;;16.75;66.45;94474.06;5075378;28;20181;-72
2022/06/08 02:13:35;;;;;;;5.90;5.28;;;;;;;16.71;66.62;94476.03;5074323;28;20227;-71
2022/06/08 02:16:07;;;;;;;5.07;4.50;;;;;;;16.72;66.71;94478.41;5074363;28;20201;-71
2022/06/08 02:18:37;;;;;;;6.15;4.63;;;;;;;16.73;66.23;94477.19;5074575;28;20181;-71
2022/06/08 02:21:08;;;;;;;5.07;4.50;;;;;;;16.69;66.79;94484.78;5075176;28;20200;-71
2022/06/08 02:23:41;;;;;;;5.10;4.35;;;;;;;16.71;67.05;94482.41;5073923;28;20233;-71
2022/06/08 02:26:11;;;;;;;6.43;4.93;;;;;;;16.74;66.82;94476.06;5075192;28;20203;-71
2022/06/08 02:28:40;;;;;;;6.30;4.57;;;;;;;16.78;67.14;94473.25;5075229;28;20205;-71
2022/06/08 02:31:11;;;;;;;5.60;4.57;;;;;;;16.73;66.81;94471.63;5074992;28;20185;-71
2022/06/08 02:36:27;;;;;;;5.82;4.75;;;;;;;16.59;65.75;94474.50;5075051;28;20189;-71
2022/06/08 02:38:58;;;;;;;7.80;4.88;;;;;;;16.49;66.23;94469.81;5074343;28;20197;-71
2022/06/08 02:41:25;;;;;;;6.93;4.30;;;;;;;16.45;66.63;94474.56;5074967;28;20189;-71
2022/06/08 02:43:54;;;;;;;5.20;4.70;;;;;;;16.43;66.50;94474.19;5074624;28;20213;-71
2022/06/08 02:46:27;;;;;;;5.40;4.32;;;;;;;16.46;66.98;94476.97;5074377;28;20578;-71
2022/06/08 02:48:53;;;;;;;5.20;4.80;;;;;;;16.52;67.05;94471.75;5073990;28;20209;-72
2022/06/08 02:51:27;;;;;;;5.63;4.80;;;;;;;16.53;67.11;94479.72;5074549;28;20185;-72
2022/06/08 02:53:59;;;;;;;5.57;4.93;;;;;;;16.49;66.89;94481.72;5057134;28;20208;-71
2022/06/08 02:56:35;;;;;;;5.20;4.80;;;;;;;16.47;66.84;94481.31;5074265;28;20204;-71
2022/06/08 02:59:06;;;;;;;5.30;4.90;;;;;;;16.45;66.57;94492.09;5073722;28;20205;-71
2022/06/08 03:01:37;;;;;;;4.72;4.40;;;;;;;16.46;66.95;94499.22;5073558;28;20201;-75
2022/06/08 03:04:09;;;;;;;5.18;4.60;;;;;;;16.44;66.53;94496.03;5074027;28;20216;-74
2022/06/08 03:06:42;;;;;;;6.55;5.55;;;;;;;16.42;66.69;94500.44;5074227;28;20217;-74
2022/06/08 03:09:13;;;;;;;5.03;4.63;;;;;;;16.41;67.11;94507.97;5073931;28;20266;-75
2022/06/08 03:11:43;;;;;;;4.45;4.05;;;;;;;16.40;67.15;94514.75;5073868;28;20341;-75
2022/06/08 03:14:12;;;;;;;4.38;3.95;;;;;;;16.48;66.80;94505.16;5074797;28;20186;-74
2022/06/08 03:16:41;;;;;;;5.82;4.28;;;;;;;16.48;66.42;94513.53;5073850;28;20204;-75
2022/06/08 03:19:10;;;;;;;4.60;4.22;;;;;;;16.45;66.14;94508.78;5073912;28;20205;-74
2022/06/08 03:21:37;;;;;;;4.50;4.10;;;;;;;16.46;66.75;94510.38;5073750;28;20193;-75
2022/06/08 03:24:05;;;;;;;5.20;4.68;;;;;;;16.49;66.44;94509.56;5074497;28;20236;-75
2022/06/08 03:26:40;;;;;;;4.78;4.25;;;;;;;16.48;66.50;94509.94;5073579;28;20201;-74
2022/06/08 03:29:06;;;;;;;5.13;4.53;;;;;;;16.48;67.39;94507.94;5074446;28;20295;-75
2022/06/08 03:31:33;;;;;;;5.18;4.30;;;;;;;16.46;67.24;94506.78;5078287;28;20250;-74
2022/06/08 03:34:00;;;;;;;4.88;4.38;;;;;;;16.47;67.55;94511.94;5060419;28;20205;-74
2022/06/08 03:36:27;;;;;;;4.45;4.10;;;;;;;16.51;66.47;94512.72;5076954;28;20640;-74
2022/06/08 03:38:53;;;;;;;4.60;4.30;;;;;;;16.56;66.56;94517.09;5078126;28;20185;-71
2022/06/08 03:41:20;;;;;;;5.13;4.32;;;;;;;16.58;66.55;94507.13;5077179;28;20205;-76
2022/06/08 03:43:48;;;;;;;5.28;4.22;;;;;;;16.59;66.27;94505.94;5077793;28;20209;-70
2022/06/08 03:46:16;;;;;;;6.97;4.28;;;;;;;16.60;66.14;94510.31;5078031;28;20263;-71
2022/06/08 03:48:44;;;;;;;4.90;4.05;;;;;;;16.58;66.16;94512.69;5077954;28;20193;-71
2022/06/08 03:51:12;;;;;;;4.75;4.28;;;;;;;16.58;66.05;94501.56;5077223;28;20197;-72
2022/06/08 03:53:44;;;;;;;4.65;4.25;;;;;;;16.63;66.25;94502.31;5076967;28;20197;-72
2022/06/08 03:56:11;;;;;;;5.13;4.35;;;;;;;16.64;66.52;94506.72;5077299;28;20208;-72
2022/06/08 03:58:37;;;;;;;4.78;4.32;;;;;;;16.68;66.54;94505.50;5077080;28;20280;-73
2022/06/08 04:01:06;;;;;;;5.25;4.75;;;;;;;16.72;67.12;94509.03;5077751;28;20193;-73
2022/06/08 04:03:33;;;;;;;4.75;4.40;;;;;;;16.73;66.95;94513.41;5077632;28;20205;-73
2022/06/08 04:06:00;;;;;;;4.82;4.43;;;;;;;16.76;66.78;94507.06;5077274;28;20551;-73
2022/06/08 04:08:28;;;;;;;5.50;4.95;;;;;;;16.81;66.49;94505.84;5077602;28;20196;-72
2022/06/08 04:10:55;;;;;;;5.50;5.10;;;;;;;16.82;66.00;94504.66;5076843;28;20197;-73
2022/06/08 04:13:21;;;;;;;5.20;4.80;;;;;;;16.81;66.02;94500.25;5077131;28;20208;-73
2022/06/08 04:15:49;;;;;;;5.18;4.78;;;;;;;16.79;65.82;94509.03;5077229;28;20220;-73
2022/06/08 04:18:19;;;;;;;5.55;5.00;;;;;;;16.76;65.69;94501.50;5076475;28;20636;-73
2022/06/08 04:20:48;;;;;;;5.38;4.97;;;;;;;16.73;66.41;94495.91;5077332;28;20197;-73
2022/06/08 04:23:16;;;;;;;6.20;5.47;;;;;;;16.75;66.77;94488.78;5077281;28;20229;-73
2022/06/08 04:25:44;;;;;;;5.55;5.05;;;;;;;16.79;66.51;94488.75;5077214;28;20219;-73
2022/06/08 04:28:13;;;;;;;5.63;5.10;;;;;;;16.80;66.45;94482.75;5077342;28;20205;-72
2022/06/08 04:30:40;;;;;;;5.78;5.28;;;;;;;16.83;66.88;94487.53;5076515;28;20201;-72
2022/06/08 04:33:07;;;;;;;6.18;5.65;;;;;;;16.86;66.71;94485.94;5077200;28;20185;-72
2022/06/08 04:35:35;;;;;;;5.78;5.28;;;;;;;16.87;67.04;94492.28;5076990;28;20193;-72
2022/06/08 04:38:03;;;;;;;5.85;5.15;;;;;;;16.88;68.01;94493.88;5077023;28;20228;-72
2022/06/08 04:40:31;;;;;;;7.03;5.43;;;;;;;16.90;67.81;94488.69;5075641;28;20208;-73
2022/06/08 04:42:58;;;;;;;6.20;5.60;;;;;;;16.91;68.06;94493.84;5075984;28;20193;-72
2022/06/08 04:45:25;;;;;;;8.02;5.90;;;;;;;16.90;67.53;94488.69;5076544;28;20177;-72
2022/06/08 04:47:52;;;;;;;6.38;5.78;;;;;;;16.96;66.99;94481.50;5077072;28;20250;-72
2022/06/08 04:50:19;;;;;;;8.57;5.65;;;;;;;17.03;67.23;94492.56;5076866;28;20181;-72
2022/06/08 04:52:49;;;;;;;7.32;6.47;;;;;;;17.04;66.20;94494.16;5076900;28;20196;-72
2022/06/08 04:55:16;;;;;;;7.40;6.70;;;;;;;17.05;66.23;94492.97;5076550;28;20189;-72
2022/06/08 04:57:43;;;;;;;7.47;6.30;;;;;;;17.04;66.81;94491.38;5076314;28;20205;-72
2022/06/08 05:00:12;;;;;;;6.95;6.38;;;;;;;17.05;67.28;94501.31;5076597;28;20197;-72
2022/06/08 05:02:45;;;;;;;7.00;6.30;;;;;;;17.06;66.39;94506.47;5076703;28;20189;-73
2022/06/08 05:05:13;;;;;;;7.50;6.80;;;;;;;17.08;66.39;94503.28;5076458;28;20209;-72
2022/06/08 05:07:40;;;;;;;7.28;6.65;;;;;;;17.12;66.41;94494.91;5076089;28;20815;-73
2022/06/08 05:10:09;;;;;;;7.70;6.90;;;;;;;17.14;66.71;94498.88;5076319;28;20208;-73
2022/06/08 05:12:37;;;;;;;7.20;6.53;;;;;;;17.16;67.29;94488.09;5075772;28;20205;-72
2022/06/08 05:15:07;;;;;;;7.85;7.10;;;;;;;17.17;67.55;94495.25;5076232;28;20207;-73
2022/06/08 05:17:34;;;;;;;7.40;6.72;;;;;;;17.21;68.12;94487.69;5075031;28;20282;-73
2022/06/08 05:20:01;;;;;;;7.57;6.93;;;;;;;17.21;66.95;94490.47;5074950;28;20254;-73
2022/06/08 05:22:28;;;;;;;7.40;6.78;;;;;;;17.25;66.90;94493.22;5075961;28;20205;-72
2022/06/08 05:24:55;;;;;;;7.78;6.55;;;;;;;17.32;66.94;94498.75;5074609;28;20233;-72
2022/06/08 05:27:23;;;;;;;10.80;8.27;;;;;;;17.35;66.21;94497.91;5076149;28;20185;-72
2022/06/08 05:29:50;;;;;;;7.70;6.93;;;;;;;17.38;65.83;94497.09;5075969;28;20258;-72
2022/06/08 05:32:17;;;;;;;7.70;7.07;;;;;;;17.44;65.65;94498.25;5075200;28;20197;-72
2022/06/08 05:34:44;;;;;;;7.95;7.22;;;;;;;17.50;66.29;94502.19;5074934;28;20189;-72
2022/06/08 05:37:11;;;;;;;9.25;7.25;;;;;;;17.53;67.24;94515.28;5075837;28;20217;-72
2022/06/08 05:39:37;;;;;;;7.40;6.80;;;;;;;17.56;66.90;94508.09;5074790;28;20563;-72
2022/06/08 05:42:05;;;;;;;8.23;7.10;;;;;;;17.62;66.10;94511.25;5075463;28;20192;-74
2022/06/08 05:44:33;;;;;;;7.40;6.80;;;;;;;17.68;65.72;94518.72;5074872;28;20275;-74
2022/06/08 05:47:00;;;;;;;8.20;7.43;;;;;;;17.73;65.53;94515.50;5075752;28;20220;-72
2022/06/08 05:49:27;;;;;;;9.63;7.70;;;;;;;17.82;65.56;94523.41;5075621;28;20246;-72
2022/06/08 05:51:54;;;;;;;8.40;7.28;;;;;;;17.90;65.24;94516.59;5073845;28;20518;-72
2022/06/08 05:54:21;;;;;;;8.45;7.60;;;;;;;17.96;64.82;94514.13;5075567;28;20181;-72
2022/06/08 05:56:48;;;;;;;9.80;8.90;;;;;;;18.01;64.44;94513.66;5075394;28;20192;-72
2022/06/08 05:59:14;;;;;;;10.05;9.07;;;;;;;18.05;63.85;94506.06;5075329;28;20200;-72
2022/06/08 06:01:43;;;;;;;9.73;8.82;;;;;;;18.06;64.13;94504.84;5074393;28;20270;-72
2022/06/08 06:04:10;;;;;;;9.85;9.00;;;;;;;18.10;64.61;94508.41;5074843;28;20228;-72
2022/06/08 06:06:38;;;;;;;9.20;8.38;;;;;;;18.14;64.26;94498.00;5075478;28;20173;-73
2022/06/08 06:09:05;;;;;;;8.77;7.65;;;;;;;18.17;63.84;94501.97;5074667;28;20200;-72
2022/06/08 06:11:32;;;;;;;11.30;7.97;;;;;;;18.17;63.74;94499.16;5075399;28;20220;-72
2022/06/08 06:13:59;;;;;;;10.90;8.40;;;;;;;18.22;64.04;94495.91;5074283;28;20193;-72
2022/06/08 06:16:26;;;;;;;9.88;8.65;;;;;;;18.26;64.22;94496.66;5075390;28;20189;-73
2022/06/08 06:18:54;;;;;;;8.57;7.10;;;;;;;18.29;64.34;94491.03;5074524;28;20201;-73
2022/06/08 06:21:25;;;;;;;7.97;7.18;;;;;;;18.37;64.64;94486.16;5074248;28;20193;-73
2022/06/08 06:23:52;;;;;;;7.97;7.28;;;;;;;18.46;63.64;94482.88;5074178;28;20229;-73
2022/06/08 06:26:18;;;;;;;8.07;7.28;;;;;;;18.53;63.14;94485.56;5074298;28;20204;-73
2022/06/08 06:28:45;;;;;;;7.07;6.45;;;;;;;18.56;62.60;94479.16;5074909;28;20539;-73
2022/06/08 06:31:16;;;;;;;12.77;7.30;;;;;;;18.60;61.74;94484.69;5075180;28;20189;-73
2022/06/08 06:33:43;;;;;;;9.65;7.07;;;;;;;18.62;61.67;94474.66;5075085;28;20234;-73
2022/06/08 06:36:11;;;;;;;7.57;6.70;;;;;;;18.63;61.12;94476.28;5075031;28;20236;-73
2022/06/08 06:38:38;;;;;;;7.05;6.35;;;;;;;18.66;60.99;94474.63;5074271;28;20230;-73
2022/06/08 06:41:05;;;;;;;6.88;6.18;;;;;;;18.68;60.98;94467.41;5073983;28;20209;-73
2022/06/08 06:43:32;;;;;;;7.88;6.80;;;;;;;18.67;61.27;94468.63;5075025;28;20193;-73
2022/06/08 06:45:58;;;;;;;7.80;6.85;;;;;;;18.66;60.62;94467.03;5075051;28;20192;-74
2022/06/08 06:48:25;;;;;;;6.85;6.25;;;;;;;18.66;61.61;94460.66;5074386;28;20189;-73
2022/06/08 06:50:52;;;;;;;7.53;5.70;;;;;;;18.71;60.56;94460.25;5074100;28;20205;-73
2022/06/08 06:53:20;;;;;;;6.32;5.25;;;;;;;18.79;60.76;94458.13;5074587;28;20200;-73
2022/06/08 06:55:47;;;;;;;6.32;5.80;;;;;;;18.84;60.45;94460.44;5074968;28;20496;-73
2022/06/08 06:58:14;;;;;;;6.82;6.22;;;;;;;18.89;60.24;94460.00;5074554;28;20189;-74
2022/06/08 07:00:41;;;;;;;8.00;6.40;;;;;;;18.92;60.09;94464.75;5074945;28;20189;-73
2022/06/08 07:03:07;;;;;;;7.78;6.63;;;;;;;18.95;60.19;94463.88;5075914;28;20246;-73
2022/06/08 07:05:36;;;;;;;9.20;8.30;;;;;;;18.97;59.49;94461.47;5079202;28;20220;-73
2022/06/08 07:08:03;;;;;;;8.95;7.45;;;;;;;18.93;59.57;94458.72;5078702;28;20208;-73
2022/06/08 07:10:32;;;;;;;10.27;8.55;;;;;;;18.91;59.42;94451.97;5079441;28;20216;-72
2022/06/08 07:12:59;;;;;;;8.90;7.65;;;;;;;18.96;59.11;94454.28;5078525;28;20201;-72
2022/06/08 07:15:26;;;;;;;8.32;7.03;;;;;;;19.09;59.68;94460.88;5079074;28;20181;-72
2022/06/08 07:17:53;;;;;;;9.80;7.72;;;;;;;19.22;60.15;94464.66;5079125;28;20193;-73
2022/06/08 07:20:21;;;;;;;10.80;7.85;;;;;;;19.31;60.22;94466.91;5079129;28;20256;-73
2022/06/08 07:22:49;;;;;;;7.90;7.13;;;;;;;19.39;59.36;94462.81;5078768;28;20613;-73
2022/06/08 07:25:16;;;;;;;7.65;6.97;;;;;;;19.48;59.49;94467.84;5077662;28;20693;-73
2022/06/08 07:27:45;;;;;;;8.63;7.63;;;;;;;19.56;59.08;94465.72;5078634;28;20609;-73
2022/06/08 07:30:14;;;;;;;8.48;7.60;;;;;;;19.57;58.80;94465.31;5078564;28;20201;-73
2022/06/08 07:32:41;;;;;;;10.60;9.68;;;;;;;19.58;58.73;94469.69;5078020;28;20205;-73
2022/06/08 07:35:09;;;;;;;8.65;7.90;;;;;;;19.58;58.37;94466.09;5078826;28;20200;-72
2022/06/08 07:37:35;;;;;;;8.02;7.32;;;;;;;19.59;57.70;94462.84;5078787;28;20197;-72
2022/06/08 07:40:02;;;;;;;7.78;7.03;;;;;;;19.59;57.27;94468.44;5078799;28;20189;-72
2022/06/08 07:42:29;;;;;;;8.15;6.90;;;;;;;19.60;58.02;94464.44;5078683;28;20189;-72
2022/06/08 07:44:58;;;;;;;7.18;5.72;;;;;;;19.63;58.71;94471.22;5078455;28;20205;-72
2022/06/08 07:47:24;;;;;;;7.65;6.03;;;;;;;19.68;58.47;94473.53;5078151;28;20189;-73
2022/06/08 07:49:51;;;;;;;7.88;6.10;;;;;;;19.76;58.23;94474.22;5078534;28;20181;-73
2022/06/08 07:52:20;;;;;;;7.47;6.57;;;;;;;19.79;58.15;94464.94;5077568;28;20200;-73
2022/06/08 07:54:47;;;;;;;8.30;7.57;;;;;;;19.84;57.87;94470.84;5078429;28;20193;-73
2022/06/08 07:57:17;;;;;;;7.30;6.28;;;;;;;19.83;57.38;94465.69;5078048;28;20258;-72
2022/06/08 07:59:44;;;;;;;8.57;5.85;;;;;;;19.89;57.62;94466.75;5077099;28;20297;-72
2022/06/08 08:02:14;;;;;;;6.95;6.32;;;;;;;19.99;59.29;94462.97;5077189;28;20641;-72
2022/06/08 08:04:41;;;;;;;6.20;5.70;;;;;;;20.09;59.01;94462.00;5077285;28;20221;-72
2022/06/08 08:07:08;;;;;;;8.32;7.63;;;;;;;20.15;57.05;94460.28;5077931;28;20188;-72
2022/06/08 08:09:35;;;;;;;9.63;8.27;;;;;;;20.14;56.27;94460.69;5076767;28;20205;-72
2022/06/08 08:12:03;;;;;;;9.23;8.27;;;;;;;20.12;55.45;94463.94;5077111;28;20197;-73
2022/06/08 08:14:33;;;;;;;7.03;6.35;;;;;;;20.15;56.29;94457.47;5077718;28;20247;-73
2022/06/08 08:17:00;;;;;;;8.25;7.55;;;;;;;20.17;56.17;94455.03;5076855;28;20197;-73
2022/06/08 08:19:28;;;;;;;9.10;8.30;;;;;;;20.17;55.02;94443.81;5077929;28;20208;-73
2022/06/08 08:21:56;;;;;;;7.65;6.95;;;;;;;20.22;55.60;94441.75;5077636;28;20613;-73
2022/06/08 08:24:23;;;;;;;6.95;6.22;;;;;;;20.34;57.02;94432.72;5077398;28;20229;-73
2022/06/08 08:26:51;;;;;;;6.82;6.13;;;;;;;20.50;57.35;94432.00;5077870;28;20228;-73
2022/06/08 08:29:18;;;;;;;6.90;5.65;;;;;;;20.64;56.76;94429.69;5076750;28;20193;-73
2022/06/08 08:31:45;;;;;;;5.85;5.28;;;;;;;20.77;56.14;94426.19;5077805;28;20221;-73
2022/06/08 08:34:12;;;;;;;6.80;6.10;;;;;;;20.84;56.64;94428.84;5077223;28;20193;-73
2022/06/08 08:36:41;;;;;;;6.22;5.47;;;;;;;20.94;56.14;94427.81;5076975;28;20216;-73
2022/06/08 08:39:08;;;;;;;6.72;6.13;;;;;;;21.09;54.30;94423.44;5076707;28;20326;-73
2022/06/08 08:44:35;;;;;;;8.30;7.60;;;;;;;21.25;55.52;94427.50;5077133;28;20230;-73
2022/06/08 08:47:10;;;;;;;7.93;7.18;;;;;;;21.23;52.66;94413.91;5077282;28;20280;-73
2022/06/08 08:49:41;;;;;;;7.43;6.80;;;;;;;21.23;52.34;94418.75;5076394;28;20254;-73
2022/06/08 08:52:16;;;;;;;7.55;6.82;;;;;;;21.33;53.60;94417.69;5077367;28;20276;-73
2022/06/08 08:54:51;;;;;;;6.25;5.53;;;;;;;21.46;53.49;94421.41;5076261;28;20215;-73
2022/06/08 08:57:21;;;;;;;5.97;4.78;;;;;;;21.60;53.31;94423.03;5076976;28;20203;-73
2022/06/08 08:59:50;;;;;;;8.00;5.65;;;;;;;21.73;52.88;94423.13;5077246;28;20200;-73
2022/06/08 09:03:14;;;;;;;5.88;5.32;;;;;;;21.80;52.55;94418.13;5076671;28;20224;-73
2022/06/08 09:05:12;;;;;;;5.43;4.97;;;;;;;21.94;52.97;94414.16;5076436;28;20294;-73
2022/06/08 09:07:40;;;;;;;5.22;4.75;;;;;;;;;;5076893;28;20189;-73
2022/06/08 09:10:08;;;;;;;6.00;5.35;;;;;;;22.14;51.95;94401.97;5077006;28;20189;-73
2022/06/08 09:12:35;;;;;;;6.18;5.63;;;;;;;22.24;52.81;94400.91;5077162;28;20227;-73
2022/06/08 09:15:02;;;;;;;5.50;5.00;;;;;;;22.35;52.59;94401.41;5075879;28;20197;-73
2022/06/08 09:17:34;;;;;;;5.47;4.97;;;;;;;22.49;51.02;94389.75;5075919;28;20248;-73
2022/06/08 09:20:03;;;;;;;6.00;5.07;;;;;;;22.53;49.93;94393.22;5076182;28;20205;-73
2022/06/08 09:22:31;;;;;;;7.93;5.32;;;;;;;22.59;50.11;94396.28;5076301;28;20205;-73
2022/06/08 09:25:01;;;;;;;7.50;5.00;;;;;;;22.69;50.13;94394.38;5075546;28;20229;-74
2022/06/08 09:27:31;;;;;;;7.20;6.50;;;;;;;22.72;47.66;94387.84;5075407;28;20185;-74
2022/06/08 09:30:13;;;;;;;7.25;6.50;;;;;;;22.72;48.63;94397.06;5076534;28;20576;-73
2022/06/08 09:32:45;;;;;;;6.50;6.00;;;;;;;22.80;48.97;94392.00;5075867;28;20259;-73
2022/06/08 09:35:27;;;;;;;6.30;5.70;;;;;;;22.93;49.60;94386.44;5075373;28;20192;-74
2022/06/08 09:37:56;;;;;;;5.50;4.68;;;;;;;23.00;49.00;94383.41;5076390;28;20268;-73
2022/06/08 09:40:38;;;;;;;5.18;4.38;;;;;;;23.11;49.65;94383.06;5076395;28;20200;-73
2022/06/08 09:43:57;;;;;;;4.20;3.80;;;;;;;23.26;47.26;94376.50;5076405;28;20204;-73
2022/06/08 09:51:25;;;;;;;5.28;3.65;;;;;;;23.32;46.23;94376.75;5014667;28;20565;-73
2022/06/08 09:52:25;;;;;;;4.68;4.22;;;;;;;23.45;44.20;94371.09;5075869;28;20200;-74
2022/06/08 09:55:02;;;;;;;4.30;3.95;;;;;;;23.44;44.43;94370.28;5076383;28;20196;-74
2022/06/08 09:57:41;;;;;;;3.70;3.28;;;;;;;23.53;45.89;94366.81;5074881;28;20207;-74
2022/06/08 10:00:18;;;;;;;4.40;4.00;;;;;;;23.63;45.29;94367.66;5075144;28;20201;-73
2022/06/08 10:02:54;;;;;;;5.07;4.47;;;;;;;23.66;45.30;94361.91;5075613;28;20185;-73
2022/06/08 10:05:28;;;;;;;4.75;4.35;;;;;;;23.69;44.15;94363.84;5075348;28;20265;-73
2022/06/08 10:08:14;;;;;;;4.22;3.92;;;;;;;23.70;44.30;94347.75;5074319;28;20204;-73
2022/06/08 10:10:48;;;;;;;4.03;3.58;;;;;;;23.78;46.55;94349.06;5075370;28;20182;-73
2022/06/08 10:13:19;;;;;;;3.70;3.40;;;;;;;23.91;45.82;94346.19;5074576;28;20200;-73
2022/06/08 10:15:49;;;;;;;3.40;3.03;;;;;;;23.97;44.68;94344.38;5075380;28;20177;-73
2022/06/08 10:18:18;;;;;;;3.10;2.90;;;;;;;24.04;43.80;94349.75;5074724;28;20205;-73
2022/06/08 10:20:48;;;;;;;4.35;3.03;;;;;;;24.07;44.09;94346.00;5074965;28;20208;-73
2022/06/08 10:23:25;;;;;;;3.00;2.80;;;;;;;24.15;44.53;94349.38;5074390;28;20228;-73
2022/06/08 10:25:56;;;;;;;3.35;3.10;;;;;;;24.23;42.89;94345.81;5074728;28;20217;-73
2022/06/08 10:28:31;;;;;;;4.03;2.97;;;;;;;24.28;44.23;94341.63;5075190;28;20276;-73
2022/06/08 10:31:02;;;;;;;3.67;3.38;;;;;;;24.34;42.23;94339.78;5075224;28;20181;-73
2022/06/08 10:33:35;;;;;;;3.72;3.30;;;;;;;24.43;41.48;94330.63;5073856;28;20643;-73
2022/06/08 10:36:03;;;;;;;4.72;3.55;;;;;;;24.44;41.69;94332.22;5074031;28;20204;-73
2022/06/08 10:38:32;;;;;;;4.32;3.40;;;;;;;24.45;42.86;94334.56;5077288;28;20197;-73
2022/06/08 10:41:01;;;;;;;3.80;3.35;;;;;;;24.50;41.87;94321.91;5080952;28;20197;-72
2022/06/08 10:43:32;;;;;;;3.42;3.13;;;;;;;24.58;42.49;94323.19;5081699;28;20181;-72
2022/06/08 10:46:02;;;;;;;5.95;3.35;;;;;;;24.68;42.80;94319.16;5081180;28;20208;-73
2022/06/08 10:48:47;;;;;;;3.33;2.97;;;;;;;24.75;42.59;94323.75;5081802;28;20268;-73
2022/06/08 10:51:39;;;;;;;3.50;3.03;;;;;;;24.81;42.48;94319.06;5080757;28;20258;-73
2022/06/08 10:57:49;;;;;;;3.65;2.70;;;;;;;24.83;41.23;94330.66;5080704;28;20196;-73
2022/06/08 11:00:30;;;;;;;2.90;2.63;;;;;;;24.87;42.49;94322.84;5064625;28;20216;-73
2022/06/08 11:03:03;;;;;;;2.70;2.50;;;;;;;24.96;41.53;94319.28;5080739;28;20204;-72
2022/06/08 11:05:32;;;;;;;3.03;2.83;;;;;;;25.04;41.35;94326.19;5081155;28;20201;-72
2022/06/08 11:08:19;;;;;;;2.95;2.72;;;;;;;25.12;40.58;94321.84;5081505;28;20203;-72
2022/06/08 11:11:00;;;;;;;3.20;2.72;;;;;;;25.19;40.79;94317.97;5081646;28;20176;-72
2022/06/08 11:13:33;;;;;;;4.07;2.63;;;;;;;25.19;41.10;94318.75;5080485;28;20201;-72
2022/06/08 11:16:11;;;;;;;3.20;2.90;;;;;;;25.29;39.36;94305.47;5081426;28;20302;-72
2022/06/08 11:18:42;;;;;;;3.63;2.47;;;;;;;25.36;40.86;94313.63;5081483;28;20616;-73
2022/06/08 11:21:31;;;;;;;2.65;2.45;;;;;;;25.46;40.78;94305.97;5080632;28;20189;-73
2022/06/08 11:24:01;;;;;;;4.07;2.78;;;;;;;25.55;40.77;94308.00;5072737;28;20259;-73
2022/06/08 11:26:49;;;;;;;3.35;3.00;;;;;;;25.59;40.21;94302.97;5080464;28;20216;-73
2022/06/08 11:29:40;;;;;;;3.05;2.75;;;;;;;25.61;39.88;94297.66;5080046;28;20601;-73
2022/06/08 11:32:21;;;;;;;2.88;2.67;;;;;;;25.61;38.67;94278.69;5081036;28;20177;-73
2022/06/08 11:34:58;;;;;;;3.00;2.80;;;;;;;25.68;38.87;94286.06;5080960;28;20666;-73
2022/06/08 11:37:33;;;;;;;3.10;2.90;;;;;;;25.75;40.93;94282.16;5080039;28;20231;-73
2022/06/08 11:40:04;;;;;;;5.88;3.03;;;;;;;25.80;41.20;94284.34;5080277;28;20205;-73
2022/06/08 11:42:32;;;;;;;3.50;3.03;;;;;;;25.83;40.87;94274.94;5081272;28;20185;-72
2022/06/08 11:45:04;;;;;;;3.90;2.90;;;;;;;25.83;40.70;94280.59;5081148;28;20200;-72
2022/06/08 11:47:36;;;;;;;4.10;2.95;;;;;;;25.83;40.50;94280.59;5080207;28;20293;-72
2022/06/08 11:50:11;;;;;;;3.20;3.00;;;;;;;25.73;38.73;94274.13;5078260;28;20255;-72
2022/06/08 11:52:41;;;;;;;3.22;2.95;;;;;;;25.82;39.78;94270.56;5078001;28;20196;-72
2022/06/08 11:55:16;;;;;;;3.47;3.15;;;;;;;25.89;39.38;94264.56;5077049;28;20216;-72
2022/06/08 11:57:47;;;;;;;3.20;3.00;;;;;;;25.91;38.72;94260.03;5076888;28;20254;-73
2022/06/08 12:00:22;;;;;;;2.95;2.70;;;;;;;25.92;38.49;94246.69;5077552;28;20554;-73